sensor_id;sensor_type;location;lat;lon;timestamp;pressure;altitude;pressure_sealevel;temperature;humidity
68077;BME280;54866;53.458;14.540;2023-03-25T00:01:35;99296.58;;;7.43;85.35
68077;BME280;54866;53.458;14.540;2023-03-25T00:04:06;99278.88;;;7.31;85.47
68077;BME280;54866;53.458;14.540;2023-03-25T00:06:37;99298.67;;;7.42;85.52
68077;BME280;54866;53.458;14.540;2023-03-25T00:09:11;99291.34;;;7.39;85.36
68077;BME280;54866;53.458;14.540;2023-03-25T00:11:40;99284.36;;;7.33;85.81
68077;BME280;54866;53.458;14.540;2023-03-25T00:14:11;99296.05;;;7.33;85.88
68077;BME280;54866;53.458;14.540;2023-03-25T00:16:47;99295.80;;;7.33;86.08
68077;BME280;54866;53.458;14.540;2023-03-25T00:19:20;99298.23;;;7.31;86.44
68077;BME280;54866;53.458;14.540;2023-03-25T00:21:50;99286.46;;;7.23;86.48
68077;BME280;54866;53.458;14.540;2023-03-25T00:24:25;99278.38;;;7.17;86.38
68077;BME280;54866;53.458;14.540;2023-03-25T00:26:56;99292.58;;;7.25;86.46
68077;BME280;54866;53.458;14.540;2023-03-25T00:29:25;99292.88;;;7.24;86.84
68077;BME280;54866;53.458;14.540;2023-03-25T00:31:55;99292.08;;;7.21;87.18
68077;BME280;54866;53.458;14.540;2023-03-25T00:34:27;99300.06;;;7.18;87.20
68077;BME280;54866;53.458;14.540;2023-03-25T00:36:56;99301.98;;;7.14;87.40
68077;BME280;54866;53.458;14.540;2023-03-25T00:39:27;99303.77;;;7.11;87.88
68077;BME280;54866;53.458;14.540;2023-03-25T00:41:56;99305.73;;;7.09;88.15
68077;BME280;54866;53.458;14.540;2023-03-25T00:44:29;99308.73;;;7.04;87.98
68077;BME280;54866;53.458;14.540;2023-03-25T00:47:00;99305.33;;;7.02;88.57
68077;BME280;54866;53.458;14.540;2023-03-25T00:49:30;99296.88;;;6.96;88.96
68077;BME280;54866;53.458;14.540;2023-03-25T00:52:00;99288.13;;;6.90;89.03
68077;BME280;54866;53.458;14.540;2023-03-25T00:54:30;99307.40;;;6.95;89.05
68077;BME280;54866;53.458;14.540;2023-03-25T00:57:02;99307.98;;;6.92;89.50
68077;BME280;54866;53.458;14.540;2023-03-25T00:59:31;99309.20;;;6.88;89.79
68077;BME280;54866;53.458;14.540;2023-03-25T01:02:02;99311.11;;;6.89;90.13
68077;BME280;54866;53.458;14.540;2023-03-25T01:04:34;99311.59;;;6.87;90.58
68077;BME280;54866;53.458;14.540;2023-03-25T01:07:07;99316.27;;;6.86;90.22
68077;BME280;54866;53.458;14.540;2023-03-25T01:09:41;99309.81;;;6.86;90.78
68077;BME280;54866;53.458;14.540;2023-03-25T01:12:14;99306.88;;;6.85;90.50
68077;BME280;54866;53.458;14.540;2023-03-25T01:14:46;99302.09;;;6.86;90.88
68077;BME280;54866;53.458;14.540;2023-03-25T01:17:16;99302.95;;;6.86;91.01
68077;BME280;54866;53.458;14.540;2023-03-25T01:19:45;99298.80;;;6.85;90.94
68077;BME280;54866;53.458;14.540;2023-03-25T01:22:15;99300.95;;;6.83;91.09
68077;BME280;54866;53.458;14.540;2023-03-25T01:24:46;99303.84;;;6.80;91.44
68077;BME280;54866;53.458;14.540;2023-03-25T01:27:16;99305.05;;;6.78;91.59
68077;BME280;54866;53.458;14.540;2023-03-25T01:29:47;99304.17;;;6.76;91.40
68077;BME280;54866;53.458;14.540;2023-03-25T01:32:17;99299.77;;;6.72;91.69
68077;BME280;54866;53.458;14.540;2023-03-25T01:34:46;99295.88;;;6.70;91.97
68077;BME280;54866;53.458;14.540;2023-03-25T01:37:16;99293.87;;;6.67;92.06
68077;BME280;54866;53.458;14.540;2023-03-25T01:39:47;99293.41;;;6.64;91.95
68077;BME280;54866;53.458;14.540;2023-03-25T01:42:17;99290.40;;;6.61;92.04
68077;BME280;54866;53.458;14.540;2023-03-25T01:45:23;99291.58;;;6.57;92.42
68077;BME280;54866;53.458;14.540;2023-03-25T01:47:58;99288.35;;;6.54;92.55
68077;BME280;54866;53.458;14.540;2023-03-25T01:50:31;99293.08;;;6.52;93.25
68077;BME280;54866;53.458;14.540;2023-03-25T01:53:05;99290.92;;;6.51;93.42
68077;BME280;54866;53.458;14.540;2023-03-25T01:55:37;99289.59;;;6.50;93.33
68077;BME280;54866;53.458;14.540;2023-03-25T01:58:14;99292.40;;;6.49;93.62
68077;BME280;54866;53.458;14.540;2023-03-25T02:00:49;99288.30;;;6.51;93.56
68077;BME280;54866;53.458;14.540;2023-03-25T02:03:23;99292.18;;;6.50;93.66
68077;BME280;54866;53.458;14.540;2023-03-25T02:05:57;99289.45;;;6.49;93.86
68077;BME280;54866;53.458;14.540;2023-03-25T02:08:31;99291.64;;;6.46;93.67
68077;BME280;54866;53.458;14.540;2023-03-25T02:11:07;99289.74;;;6.42;93.71
68077;BME280;54866;53.458;14.540;2023-03-25T02:13:40;99291.92;;;6.38;93.78
68077;BME280;54866;53.458;14.540;2023-03-25T02:16:23;99290.90;;;6.33;93.94
68077;BME280;54866;53.458;14.540;2023-03-25T02:19:08;99292.73;;;6.29;93.89
68077;BME280;54866;53.458;14.540;2023-03-25T02:22:37;99287.87;;;6.24;94.23
68077;BME280;54866;53.458;14.540;2023-03-25T02:28:15;99288.27;;;6.15;94.87
68077;BME280;54866;53.458;14.540;2023-03-25T02:31:12;99286.94;;;6.12;95.37
68077;BME280;54866;53.458;14.540;2023-03-25T02:39:58;99284.89;;;6.08;96.12
68077;BME280;54866;53.458;14.540;2023-03-25T02:42:38;99285.00;;;6.06;95.99
68077;BME280;54866;53.458;14.540;2023-03-25T02:45:13;99278.52;;;6.04;96.32
68077;BME280;54866;53.458;14.540;2023-03-25T02:47:48;99277.85;;;6.03;96.44
68077;BME280;54866;53.458;14.540;2023-03-25T02:50:22;99270.77;;;6.04;97.29
68077;BME280;54866;53.458;14.540;2023-03-25T02:52:59;99266.75;;;6.06;97.68
68077;BME280;54866;53.458;14.540;2023-03-25T02:55:31;99268.45;;;6.09;97.36
68077;BME280;54866;53.458;14.540;2023-03-25T02:58:08;99263.56;;;6.14;97.66
68077;BME280;54866;53.458;14.540;2023-03-25T03:00:40;99260.55;;;6.18;97.75
68077;BME280;54866;53.458;14.540;2023-03-25T03:03:11;99254.73;;;6.23;97.70
68077;BME280;54866;53.458;14.540;2023-03-25T03:05:43;99253.17;;;6.27;97.59
68077;BME280;54866;53.458;14.540;2023-03-25T03:08:28;99247.83;;;6.30;97.64
68077;BME280;54866;53.458;14.540;2023-03-25T03:11:06;99243.99;;;6.36;97.33
68077;BME280;54866;53.458;14.540;2023-03-25T03:13:54;99239.92;;;6.39;97.47
68077;BME280;54866;53.458;14.540;2023-03-25T03:16:41;99241.55;;;6.40;97.10
68077;BME280;54866;53.458;14.540;2023-03-25T03:19:23;99242.77;;;6.40;97.13
68077;BME280;54866;53.458;14.540;2023-03-25T03:22:02;99239.80;;;6.40;96.97
68077;BME280;54866;53.458;14.540;2023-03-25T03:24:44;99243.23;;;6.41;97.03
68077;BME280;54866;53.458;14.540;2023-03-25T03:27:21;99240.11;;;6.41;96.94
68077;BME280;54866;53.458;14.540;2023-03-25T03:29:59;99236.79;;;6.39;96.90
68077;BME280;54866;53.458;14.540;2023-03-25T03:32:40;99236.52;;;6.38;96.83
68077;BME280;54866;53.458;14.540;2023-03-25T03:35:16;99234.71;;;6.36;97.33
68077;BME280;54866;53.458;14.540;2023-03-25T03:37:54;99237.89;;;6.36;97.44
68077;BME280;54866;53.458;14.540;2023-03-25T03:40:27;99236.14;;;6.34;97.02
68077;BME280;54866;53.458;14.540;2023-03-25T03:43:01;99236.83;;;6.32;97.70
68077;BME280;54866;53.458;14.540;2023-03-25T03:45:35;99232.76;;;6.30;97.58
68077;BME280;54866;53.458;14.540;2023-03-25T03:48:13;99232.23;;;6.31;97.81
68077;BME280;54866;53.458;14.540;2023-03-25T03:50:48;99232.75;;;6.30;98.04
68077;BME280;54866;53.458;14.540;2023-03-25T03:53:24;99232.02;;;6.31;98.30
68077;BME280;54866;53.458;14.540;2023-03-25T03:56:00;99226.21;;;6.31;98.21
68077;BME280;54866;53.458;14.540;2023-03-25T03:58:35;99212.81;;;6.24;98.16
68077;BME280;54866;53.458;14.540;2023-03-25T04:01:12;99224.73;;;6.34;98.13
68077;BME280;54866;53.458;14.540;2023-03-25T04:03:47;99223.16;;;6.34;98.43
68077;BME280;54866;53.458;14.540;2023-03-25T04:06:23;99222.06;;;6.35;98.35
68077;BME280;54866;53.458;14.540;2023-03-25T04:09:01;99213.77;;;6.31;98.63
68077;BME280;54866;53.458;14.540;2023-03-25T04:11:41;99213.53;;;6.32;98.31
68077;BME280;54866;53.458;14.540;2023-03-25T04:14:13;99213.27;;;6.32;98.75
68077;BME280;54866;53.458;14.540;2023-03-25T04:16:44;99216.21;;;6.32;99.29
68077;BME280;54866;53.458;14.540;2023-03-25T04:19:15;99211.39;;;6.33;99.49
68077;BME280;54866;53.458;14.540;2023-03-25T04:21:47;99211.89;;;6.33;99.25
68077;BME280;54866;53.458;14.540;2023-03-25T04:24:18;99211.86;;;6.33;99.82
68077;BME280;54866;53.458;14.540;2023-03-25T04:26:48;99215.48;;;6.34;99.67
68077;BME280;54866;53.458;14.540;2023-03-25T04:29:20;99212.43;;;6.33;99.72
68077;BME280;54866;53.458;14.540;2023-03-25T04:31:51;99217.39;;;6.34;99.89
68077;BME280;54866;53.458;14.540;2023-03-25T04:34:25;99216.09;;;6.35;99.97
68077;BME280;54866;53.458;14.540;2023-03-25T04:36:58;99214.17;;;6.38;99.76
68077;BME280;54866;53.458;14.540;2023-03-25T04:39:29;99215.58;;;6.38;99.97
68077;BME280;54866;53.458;14.540;2023-03-25T04:42:00;99216.82;;;6.39;99.97
68077;BME280;54866;53.458;14.540;2023-03-25T04:44:31;99215.79;;;6.41;99.94
68077;BME280;54866;53.458;14.540;2023-03-25T04:47:08;99218.98;;;6.43;100.00
68077;BME280;54866;53.458;14.540;2023-03-25T04:49:42;99221.96;;;6.45;100.00
68077;BME280;54866;53.458;14.540;2023-03-25T04:52:14;99219.75;;;6.46;100.00
68077;BME280;54866;53.458;14.540;2023-03-25T04:54:47;99216.46;;;6.46;100.00
68077;BME280;54866;53.458;14.540;2023-03-25T04:57:19;99207.20;;;6.41;100.00
68077;BME280;54866;53.458;14.540;2023-03-25T04:59:49;99215.70;;;6.46;100.00
68077;BME280;54866;53.458;14.540;2023-03-25T05:02:19;99215.17;;;6.48;100.00
68077;BME280;54866;53.458;14.540;2023-03-25T05:04:51;99217.62;;;6.50;100.00
68077;BME280;54866;53.458;14.540;2023-03-25T05:07:21;99206.80;;;6.54;100.00
68077;BME280;54866;53.458;14.540;2023-03-25T05:09:54;99211.20;;;6.60;100.00
68077;BME280;54866;53.458;14.540;2023-03-25T05:12:24;99213.27;;;6.62;100.00
68077;BME280;54866;53.458;14.540;2023-03-25T05:14:54;99213.70;;;6.65;100.00
68077;BME280;54866;53.458;14.540;2023-03-25T05:17:24;99216.08;;;6.68;100.00
68077;BME280;54866;53.458;14.540;2023-03-25T05:19:54;99212.89;;;6.73;100.00
68077;BME280;54866;53.458;14.540;2023-03-25T05:22:24;99211.79;;;6.75;100.00
68077;BME280;54866;53.458;14.540;2023-03-25T05:24:54;99209.48;;;6.78;100.00
68077;BME280;54866;53.458;14.540;2023-03-25T05:27:24;99207.13;;;6.79;100.00
68077;BME280;54866;53.458;14.540;2023-03-25T05:29:55;99205.05;;;6.77;100.00
68077;BME280;54866;53.458;14.540;2023-03-25T05:32:27;99210.75;;;6.81;100.00
68077;BME280;54866;53.458;14.540;2023-03-25T05:35:01;99208.44;;;6.82;100.00
68077;BME280;54866;53.458;14.540;2023-03-25T05:37:32;99201.71;;;6.81;100.00
68077;BME280;54866;53.458;14.540;2023-03-25T05:40:03;99203.04;;;6.80;100.00
68077;BME280;54866;53.458;14.540;2023-03-25T05:42:35;99205.00;;;6.79;100.00
68077;BME280;54866;53.458;14.540;2023-03-25T05:45:08;99206.21;;;6.79;100.00
68077;BME280;54866;53.458;14.540;2023-03-25T05:47:38;99209.09;;;6.80;100.00
68077;BME280;54866;53.458;14.540;2023-03-25T05:50:10;99206.63;;;6.81;100.00
68077;BME280;54866;53.458;14.540;2023-03-25T05:52:42;99207.27;;;6.83;100.00
68077;BME280;54866;53.458;14.540;2023-03-25T05:55:16;99206.29;;;6.86;100.00
68077;BME280;54866;53.458;14.540;2023-03-25T05:57:49;99205.71;;;6.90;100.00
68077;BME280;54866;53.458;14.540;2023-03-25T06:00:20;99207.50;;;6.97;100.00
68077;BME280;54866;53.458;14.540;2023-03-25T06:02:51;99208.80;;;7.04;100.00
68077;BME280;54866;53.458;14.540;2023-03-25T06:05:23;99211.94;;;7.10;100.00
68077;BME280;54866;53.458;14.540;2023-03-25T06:07:55;99212.80;;;7.16;100.00
68077;BME280;54866;53.458;14.540;2023-03-25T06:10:26;99211.54;;;7.22;100.00
68077;BME280;54866;53.458;14.540;2023-03-25T06:12:57;99211.50;;;7.29;100.00
68077;BME280;54866;53.458;14.540;2023-03-25T06:15:27;99216.92;;;7.35;100.00
68077;BME280;54866;53.458;14.540;2023-03-25T06:18:01;99217.34;;;7.40;100.00
68077;BME280;54866;53.458;14.540;2023-03-25T06:20:31;99220.86;;;7.46;100.00
68077;BME280;54866;53.458;14.540;2023-03-25T06:23:02;99222.31;;;7.53;100.00
68077;BME280;54866;53.458;14.540;2023-03-25T06:25:32;99223.42;;;7.62;100.00
68077;BME280;54866;53.458;14.540;2023-03-25T06:28:02;99205.86;;;7.59;100.00
68077;BME280;54866;53.458;14.540;2023-03-25T06:30:32;99220.30;;;7.73;100.00
68077;BME280;54866;53.458;14.540;2023-03-25T06:33:02;99221.77;;;7.80;100.00
68077;BME280;54866;53.458;14.540;2023-03-25T06:35:34;99224.94;;;7.88;100.00
68077;BME280;54866;53.458;14.540;2023-03-25T06:38:04;99224.90;;;7.94;100.00
68077;BME280;54866;53.458;14.540;2023-03-25T06:40:34;99224.89;;;8.02;100.00
68077;BME280;54866;53.458;14.540;2023-03-25T06:43:06;99223.06;;;8.10;100.00
68077;BME280;54866;53.458;14.540;2023-03-25T06:45:36;99217.99;;;8.20;100.00
68077;BME280;54866;53.458;14.540;2023-03-25T06:48:06;99220.08;;;8.30;100.00
68077;BME280;54866;53.458;14.540;2023-03-25T06:50:37;99224.54;;;8.39;100.00
68077;BME280;54866;53.458;14.540;2023-03-25T06:53:08;99225.48;;;8.47;99.62
68077;BME280;54866;53.458;14.540;2023-03-25T06:55:39;99226.80;;;8.59;99.37
68077;BME280;54866;53.458;14.540;2023-03-25T06:58:10;99221.10;;;8.77;98.57
68077;BME280;54866;53.458;14.540;2023-03-25T07:00:41;99219.58;;;9.12;97.22
68077;BME280;54866;53.458;14.540;2023-03-25T07:03:13;99213.41;;;9.93;92.66
68077;BME280;54866;53.458;14.540;2023-03-25T07:05:43;99206.98;;;10.64;89.09
68077;BME280;54866;53.458;14.540;2023-03-25T07:08:13;99200.20;;;11.74;84.26
68077;BME280;54866;53.458;14.540;2023-03-25T07:10:44;99198.79;;;12.60;79.45
68077;BME280;54866;53.458;14.540;2023-03-25T07:13:14;99194.27;;;13.65;75.98
68077;BME280;54866;53.458;14.540;2023-03-25T07:15:44;99198.11;;;14.56;70.96
68077;BME280;54866;53.458;14.540;2023-03-25T07:18:14;99203.46;;;14.70;67.68
68077;BME280;54866;53.458;14.540;2023-03-25T07:20:43;99203.30;;;15.10;65.75
68077;BME280;54866;53.458;14.540;2023-03-25T07:23:13;99206.98;;;15.40;63.42
68077;BME280;54866;53.458;14.540;2023-03-25T07:25:44;99205.50;;;15.36;62.77
68077;BME280;54866;53.458;14.540;2023-03-25T07:28:14;99210.73;;;15.65;61.83
68077;BME280;54866;53.458;14.540;2023-03-25T07:30:43;99200.02;;;16.68;58.27
68077;BME280;54866;53.458;14.540;2023-03-25T07:33:14;99201.38;;;17.43;55.46
68077;BME280;54866;53.458;14.540;2023-03-25T07:35:44;99201.58;;;16.96;55.94
68077;BME280;54866;53.458;14.540;2023-03-25T07:38:14;99199.19;;;16.88;55.14
68077;BME280;54866;53.458;14.540;2023-03-25T07:40:44;99201.44;;;16.52;56.42
68077;BME280;54866;53.458;14.540;2023-03-25T07:43:14;99202.23;;;15.65;59.01
68077;BME280;54866;53.458;14.540;2023-03-25T07:45:43;99194.41;;;15.60;60.21
68077;BME280;54866;53.458;14.540;2023-03-25T07:48:13;99194.67;;;15.78;58.90
68077;BME280;54866;53.458;14.540;2023-03-25T07:50:44;99208.26;;;15.20;59.58
68077;BME280;54866;53.458;14.540;2023-03-25T07:53:16;99204.67;;;14.63;60.89
68077;BME280;54866;53.458;14.540;2023-03-25T07:55:47;99210.42;;;14.03;62.48
68077;BME280;54866;53.458;14.540;2023-03-25T07:58:18;99211.02;;;13.48;64.95
68077;BME280;54866;53.458;14.540;2023-03-25T08:00:48;99210.14;;;12.74;67.59
68077;BME280;54866;53.458;14.540;2023-03-25T08:03:19;99212.52;;;11.96;70.52
68077;BME280;54866;53.458;14.540;2023-03-25T08:05:49;99223.81;;;11.54;71.94
68077;BME280;54866;53.458;14.540;2023-03-25T08:08:19;99212.77;;;11.18;73.72
68077;BME280;54866;53.458;14.540;2023-03-25T08:10:51;99218.17;;;10.92;75.60
68077;BME280;54866;53.458;14.540;2023-03-25T08:13:21;99220.40;;;10.63;76.76
68077;BME280;54866;53.458;14.540;2023-03-25T08:15:51;99209.20;;;10.23;78.49
68077;BME280;54866;53.458;14.540;2023-03-25T08:18:21;99239.61;;;10.00;80.08
68077;BME280;54866;53.458;14.540;2023-03-25T08:20:52;99234.43;;;9.79;81.29
68077;BME280;54866;53.458;14.540;2023-03-25T08:23:23;99235.05;;;9.66;82.44
68077;BME280;54866;53.458;14.540;2023-03-25T08:25:54;99230.56;;;9.58;83.27
68077;BME280;54866;53.458;14.540;2023-03-25T08:28:24;99230.11;;;9.53;83.38
68077;BME280;54866;53.458;14.540;2023-03-25T08:30:54;99231.86;;;9.56;83.82
68077;BME280;54866;53.458;14.540;2023-03-25T08:33:27;99225.33;;;9.54;84.40
68077;BME280;54866;53.458;14.540;2023-03-25T08:36:01;99223.42;;;9.54;83.48
68077;BME280;54866;53.458;14.540;2023-03-25T08:38:32;99216.60;;;9.59;82.64
68077;BME280;54866;53.458;14.540;2023-03-25T08:41:04;99218.59;;;9.72;82.04
68077;BME280;54866;53.458;14.540;2023-03-25T08:43:34;99219.60;;;10.10;80.04
68077;BME280;54866;53.458;14.540;2023-03-25T08:46:04;99213.60;;;11.29;74.91
68077;BME280;54866;53.458;14.540;2023-03-25T08:48:34;99215.61;;;13.49;67.11
68077;BME280;54866;53.458;14.540;2023-03-25T08:51:04;99211.38;;;15.61;58.85
68077;BME280;54866;53.458;14.540;2023-03-25T08:53:34;99203.82;;;17.33;52.83
68077;BME280;54866;53.458;14.540;2023-03-25T08:56:05;99203.82;;;17.84;49.41
68077;BME280;54866;53.458;14.540;2023-03-25T08:58:35;99207.95;;;17.33;49.86
68077;BME280;54866;53.458;14.540;2023-03-25T09:01:06;99197.93;;;17.58;49.11
68077;BME280;54866;53.458;14.540;2023-03-25T09:03:36;99204.24;;;16.81;51.22
68077;BME280;54866;53.458;14.540;2023-03-25T09:06:09;99212.96;;;15.96;52.57
68077;BME280;54866;53.458;14.540;2023-03-25T09:08:39;99212.23;;;15.20;55.11
68077;BME280;54866;53.458;14.540;2023-03-25T09:11:09;99218.12;;;14.36;57.72
68077;BME280;54866;53.458;14.540;2023-03-25T09:13:39;99238.17;;;13.64;60.44
68077;BME280;54866;53.458;14.540;2023-03-25T09:16:10;99215.39;;;13.11;62.61
68077;BME280;54866;53.458;14.540;2023-03-25T09:18:40;99229.86;;;12.55;65.19
68077;BME280;54866;53.458;14.540;2023-03-25T09:21:10;99231.27;;;12.39;66.42
68077;BME280;54866;53.458;14.540;2023-03-25T09:23:40;99221.79;;;13.09;63.81
68077;BME280;54866;53.458;14.540;2023-03-25T09:26:10;99222.79;;;12.92;63.92
68077;BME280;54866;53.458;14.540;2023-03-25T09:28:40;99227.08;;;12.73;63.65
68077;BME280;54866;53.458;14.540;2023-03-25T09:31:10;99229.89;;;12.54;63.73
68077;BME280;54866;53.458;14.540;2023-03-25T09:33:43;99233.86;;;12.33;64.16
68077;BME280;54866;53.458;14.540;2023-03-25T09:36:13;99226.57;;;12.13;64.48
68077;BME280;54866;53.458;14.540;2023-03-25T09:38:43;99227.86;;;11.98;65.56
68077;BME280;54866;53.458;14.540;2023-03-25T09:41:29;99234.80;;;11.76;66.52
68077;BME280;54866;53.458;14.540;2023-03-25T09:44:08;99238.02;;;11.48;67.94
68077;BME280;54866;53.458;14.540;2023-03-25T09:46:42;99223.23;;;11.06;70.00
68077;BME280;54866;53.458;14.540;2023-03-25T09:49:15;99236.80;;;10.79;72.39
68077;BME280;54866;53.458;14.540;2023-03-25T09:51:48;99236.53;;;10.55;73.46
68077;BME280;54866;53.458;14.540;2023-03-25T09:54:26;99232.55;;;10.39;74.90
68077;BME280;54866;53.458;14.540;2023-03-25T09:57:01;99232.60;;;10.32;75.45
68077;BME280;54866;53.458;14.540;2023-03-25T09:59:38;99233.97;;;10.53;73.47
68077;BME280;54866;53.458;14.540;2023-03-25T10:02:24;99229.14;;;11.22;70.11
68077;BME280;54866;53.458;14.540;2023-03-25T10:05:10;99230.31;;;11.53;68.38
68077;BME280;54866;53.458;14.540;2023-03-25T10:07:54;99228.52;;;11.56;67.98
68077;BME280;54866;53.458;14.540;2023-03-25T10:10:33;99230.16;;;11.46;67.50
68077;BME280;54866;53.458;14.540;2023-03-25T10:13:16;99227.30;;;11.43;67.18
68077;BME280;54866;53.458;14.540;2023-03-25T10:15:53;99228.93;;;11.73;66.37
68077;BME280;54866;53.458;14.540;2023-03-25T10:18:45;99230.37;;;12.23;64.19
68077;BME280;54866;53.458;14.540;2023-03-25T10:21:22;99228.46;;;12.07;63.66
68077;BME280;54866;53.458;14.540;2023-03-25T10:24:01;99226.14;;;11.89;64.50
68077;BME280;54866;53.458;14.540;2023-03-25T10:26:41;99228.90;;;11.73;65.71
68077;BME280;54866;53.458;14.540;2023-03-25T10:29:14;99219.27;;;11.60;65.86
68077;BME280;54866;53.458;14.540;2023-03-25T10:31:51;99218.28;;;11.91;64.74
68077;BME280;54866;53.458;14.540;2023-03-25T10:34:25;99208.94;;;12.46;62.87
68077;BME280;54866;53.458;14.540;2023-03-25T10:36:59;99209.50;;;12.64;61.52
68077;BME280;54866;53.458;14.540;2023-03-25T10:39:33;99198.36;;;12.53;61.96
68077;BME280;54866;53.458;14.540;2023-03-25T10:42:18;99199.23;;;12.43;62.57
68077;BME280;54866;53.458;14.540;2023-03-25T10:44:49;99201.56;;;12.43;62.04
68077;BME280;54866;53.458;14.540;2023-03-25T10:47:21;99181.02;;;12.78;61.04
68077;BME280;54866;53.458;14.540;2023-03-25T10:49:56;99188.65;;;13.85;58.35
68077;BME280;54866;53.458;14.540;2023-03-25T10:52:28;99188.48;;;14.70;55.31
68077;BME280;54866;53.458;14.540;2023-03-25T10:54:59;99186.48;;;14.34;55.58
68077;BME280;54866;53.458;14.540;2023-03-25T10:57:30;99191.14;;;13.76;56.83
68077;BME280;54866;53.458;14.540;2023-03-25T11:00:05;99180.77;;;13.43;58.59
68077;BME280;54866;53.458;14.540;2023-03-25T11:02:40;99183.50;;;13.40;58.06
68077;BME280;54866;53.458;14.540;2023-03-25T11:05:11;99173.19;;;14.30;55.38
68077;BME280;54866;53.458;14.540;2023-03-25T11:07:47;99182.23;;;14.68;53.06
68077;BME280;54866;53.458;14.540;2023-03-25T11:10:22;99181.63;;;14.24;54.64
68077;BME280;54866;53.458;14.540;2023-03-25T11:12:54;99180.30;;;13.83;54.96
68077;BME280;54866;53.458;14.540;2023-03-25T11:15:25;99176.84;;;13.25;55.80
68077;BME280;54866;53.458;14.540;2023-03-25T11:18:01;99170.00;;;12.57;58.30
68077;BME280;54866;53.458;14.540;2023-03-25T11:20:40;99185.25;;;12.19;62.48
68077;BME280;54866;53.458;14.540;2023-03-25T11:23:23;99190.73;;;11.77;62.86
68077;BME280;54866;53.458;14.540;2023-03-25T11:25:55;99187.23;;;11.48;64.81
68077;BME280;54866;53.458;14.540;2023-03-25T11:28:37;99192.05;;;11.31;66.00
68077;BME280;54866;53.458;14.540;2023-03-25T11:31:12;99190.92;;;11.22;65.63
68077;BME280;54866;53.458;14.540;2023-03-25T11:33:44;99187.79;;;11.20;65.39
68077;BME280;54866;53.458;14.540;2023-03-25T11:36:25;99179.06;;;11.52;64.25
68077;BME280;54866;53.458;14.540;2023-03-25T11:39:02;99160.93;;;12.35;61.04
68077;BME280;54866;53.458;14.540;2023-03-25T11:41:38;99176.02;;;12.25;60.95
68077;BME280;54866;53.458;14.540;2023-03-25T11:44:16;99178.14;;;12.07;60.99
68077;BME280;54866;53.458;14.540;2023-03-25T11:46:51;99183.95;;;11.85;61.11
68077;BME280;54866;53.458;14.540;2023-03-25T11:49:25;99180.15;;;11.80;61.64
68077;BME280;54866;53.458;14.540;2023-03-25T11:52:02;99176.27;;;11.87;62.19
68077;BME280;54866;53.458;14.540;2023-03-25T11:54:36;99173.45;;;12.00;61.83
68077;BME280;54866;53.458;14.540;2023-03-25T11:57:11;99173.38;;;12.13;61.63
68077;BME280;54866;53.458;14.540;2023-03-25T11:59:46;99164.02;;;12.26;61.65
68077;BME280;54866;53.458;14.540;2023-03-25T12:02:24;99155.15;;;12.65;61.07
68077;BME280;54866;53.458;14.540;2023-03-25T12:05:03;99148.11;;;13.55;58.10
68077;BME280;54866;53.458;14.540;2023-03-25T12:07:44;99153.46;;;14.05;56.03
68077;BME280;54866;53.458;14.540;2023-03-25T12:10:19;99143.80;;;14.21;55.09
68077;BME280;54866;53.458;14.540;2023-03-25T12:13:00;99154.38;;;14.13;55.69
68077;BME280;54866;53.458;14.540;2023-03-25T12:15:37;99151.34;;;13.82;54.97
68077;BME280;54866;53.458;14.540;2023-03-25T12:18:20;99147.05;;;13.46;55.19
68077;BME280;54866;53.458;14.540;2023-03-25T12:21:01;99153.42;;;13.05;56.88
68077;BME280;54866;53.458;14.540;2023-03-25T12:23:42;99146.98;;;12.65;58.72
68077;BME280;54866;53.458;14.540;2023-03-25T12:26:20;99162.97;;;12.31;60.49
68077;BME280;54866;53.458;14.540;2023-03-25T12:29:11;99179.09;;;11.85;64.46
68077;BME280;54866;53.458;14.540;2023-03-25T12:31:57;99168.78;;;10.92;71.71
68077;BME280;54866;53.458;14.540;2023-03-25T12:34:38;99189.07;;;10.48;75.42
68077;BME280;54866;53.458;14.540;2023-03-25T12:37:23;99171.66;;;10.55;76.51
68077;BME280;54866;53.458;14.540;2023-03-25T12:40:10;99163.67;;;11.64;74.11
68077;BME280;54866;53.458;14.540;2023-03-25T12:42:49;99160.58;;;12.68;70.01
68077;BME280;54866;53.458;14.540;2023-03-25T12:45:46;99150.77;;;13.32;66.88
68077;BME280;54866;53.458;14.540;2023-03-25T12:48:30;99146.54;;;13.62;64.63
68077;BME280;54866;53.458;14.540;2023-03-25T12:51:10;99146.21;;;13.47;66.52
68077;BME280;54866;53.458;14.540;2023-03-25T12:53:50;99141.02;;;13.93;64.26
68077;BME280;54866;53.458;14.540;2023-03-25T12:56:37;99137.36;;;14.48;62.04
68077;BME280;54866;53.458;14.540;2023-03-25T12:59:31;99136.35;;;14.92;60.23
68077;BME280;54866;53.458;14.540;2023-03-25T13:02:25;99124.23;;;15.44;56.06
68077;BME280;54866;53.458;14.540;2023-03-25T13:05:05;99119.05;;;15.79;55.46
68077;BME280;54866;53.458;14.540;2023-03-25T13:07:48;99117.91;;;15.59;55.75
68077;BME280;54866;53.458;14.540;2023-03-25T13:10:21;99121.85;;;15.12;56.42
68077;BME280;54866;53.458;14.540;2023-03-25T13:12:54;99123.21;;;14.58;57.88
68077;BME280;54866;53.458;14.540;2023-03-25T13:15:27;99105.96;;;13.76;57.30
68077;BME280;54866;53.458;14.540;2023-03-25T13:18:02;99128.69;;;13.11;58.97
68077;BME280;54866;53.458;14.540;2023-03-25T13:20:41;99124.83;;;12.53;61.02
68077;BME280;54866;53.458;14.540;2023-03-25T13:23:20;99129.13;;;12.29;63.11
68077;BME280;54866;53.458;14.540;2023-03-25T13:25:55;99125.20;;;12.59;63.61
68077;BME280;54866;53.458;14.540;2023-03-25T13:28:30;99133.80;;;12.57;63.59
68077;BME280;54866;53.458;14.540;2023-03-25T13:31:11;99126.73;;;12.33;63.74
68077;BME280;54866;53.458;14.540;2023-03-25T13:33:46;99147.17;;;12.06;63.30
68077;BME280;54866;53.458;14.540;2023-03-25T13:36:29;99152.69;;;11.60;63.66
68077;BME280;54866;53.458;14.540;2023-03-25T13:39:04;99170.27;;;11.23;65.52